sensor_id;sensor_type;location;lat;lon;timestamp;temperature;humidity
45785;DHT22;31489;51.404;5.474;2022-08-21T00:02:23;20.80;59.70
45785;DHT22;31489;51.404;5.474;2022-08-21T00:04:50;20.80;59.80
45785;DHT22;31489;51.404;5.474;2022-08-21T00:07:17;20.70;59.70
45785;DHT22;31489;51.404;5.474;2022-08-21T00:09:43;20.70;59.70
45785;DHT22;31489;51.404;5.474;2022-08-21T00:12:09;20.70;60.30
45785;DHT22;31489;51.404;5.474;2022-08-21T00:14:35;20.70;59.80
45785;DHT22;31489;51.404;5.474;2022-08-21T00:17:01;20.60;59.80
45785;DHT22;31489;51.404;5.474;2022-08-21T00:19:27;20.60;59.90
45785;DHT22;31489;51.404;5.474;2022-08-21T00:21:54;20.50;60.00
45785;DHT22;31489;51.404;5.474;2022-08-21T00:24:20;20.50;60.00
45785;DHT22;31489;51.404;5.474;2022-08-21T00:26:50;20.50;60.00
45785;DHT22;31489;51.404;5.474;2022-08-21T00:29:16;20.50;60.20
45785;DHT22;31489;51.404;5.474;2022-08-21T00:31:42;20.40;60.10
45785;DHT22;31489;51.404;5.474;2022-08-21T00:34:08;20.40;60.20
45785;DHT22;31489;51.404;5.474;2022-08-21T00:36:35;20.30;60.20
45785;DHT22;31489;51.404;5.474;2022-08-21T00:39:03;20.30;60.30
45785;DHT22;31489;51.404;5.474;2022-08-21T00:41:29;20.30;60.40
45785;DHT22;31489;51.404;5.474;2022-08-21T00:43:55;20.30;60.40
45785;DHT22;31489;51.404;5.474;2022-08-21T00:46:22;20.30;60.50
45785;DHT22;31489;51.404;5.474;2022-08-21T00:48:47;20.20;60.60
45785;DHT22;31489;51.404;5.474;2022-08-21T00:51:24;20.20;60.60
45785;DHT22;31489;51.404;5.474;2022-08-21T00:53:55;20.20;61.00
45785;DHT22;31489;51.404;5.474;2022-08-21T00:56:23;20.20;60.90
45785;DHT22;31489;51.404;5.474;2022-08-21T00:58:49;20.20;60.80
45785;DHT22;31489;51.404;5.474;2022-08-21T01:01:15;20.10;60.80
45785;DHT22;31489;51.404;5.474;2022-08-21T01:03:41;20.10;60.80
45785;DHT22;31489;51.404;5.474;2022-08-21T01:06:07;20.00;60.80
45785;DHT22;31489;51.404;5.474;2022-08-21T01:08:35;20.00;61.00
45785;DHT22;31489;51.404;5.474;2022-08-21T01:11:02;20.00;61.10
45785;DHT22;31489;51.404;5.474;2022-08-21T01:13:30;20.00;61.20
45785;DHT22;31489;51.404;5.474;2022-08-21T01:15:58;20.00;61.20
45785;DHT22;31489;51.404;5.474;2022-08-21T01:18:26;19.90;61.30
45785;DHT22;31489;51.404;5.474;2022-08-21T01:21:08;19.90;61.30
45785;DHT22;31489;51.404;5.474;2022-08-21T01:23:36;19.90;61.80
45785;DHT22;31489;51.404;5.474;2022-08-21T01:26:04;19.90;61.40
45785;DHT22;31489;51.404;5.474;2022-08-21T01:28:34;19.90;61.50
45785;DHT22;31489;51.404;5.474;2022-08-21T01:31:03;19.80;61.60
45785;DHT22;31489;51.404;5.474;2022-08-21T01:33:30;19.80;61.50
45785;DHT22;31489;51.404;5.474;2022-08-21T01:35:56;19.80;61.60
45785;DHT22;31489;51.404;5.474;2022-08-21T01:38:22;19.80;61.70
45785;DHT22;31489;51.404;5.474;2022-08-21T01:40:48;19.80;61.80
45785;DHT22;31489;51.404;5.474;2022-08-21T01:43:13;19.80;61.80
45785;DHT22;31489;51.404;5.474;2022-08-21T01:45:39;19.70;61.80
45785;DHT22;31489;51.404;5.474;2022-08-21T01:48:05;19.70;61.80
45785;DHT22;31489;51.404;5.474;2022-08-21T01:50:31;19.70;61.90
45785;DHT22;31489;51.404;5.474;2022-08-21T01:52:57;19.70;61.90
45785;DHT22;31489;51.404;5.474;2022-08-21T01:55:23;19.70;61.80
45785;DHT22;31489;51.404;5.474;2022-08-21T01:57:50;19.70;61.80
45785;DHT22;31489;51.404;5.474;2022-08-21T02:00:18;19.60;61.80
45785;DHT22;31489;51.404;5.474;2022-08-21T02:02:44;19.60;61.90
45785;DHT22;31489;51.404;5.474;2022-08-21T02:05:11;19.60;61.80
45785;DHT22;31489;51.404;5.474;2022-08-21T02:07:40;19.60;62.50
45785;DHT22;31489;51.404;5.474;2022-08-21T02:10:08;19.60;62.00
45785;DHT22;31489;51.404;5.474;2022-08-21T02:12:35;19.50;61.90
45785;DHT22;31489;51.404;5.474;2022-08-21T02:15:02;19.50;61.90
45785;DHT22;31489;51.404;5.474;2022-08-21T02:17:37;19.50;62.00
45785;DHT22;31489;51.404;5.474;2022-08-21T02:20:03;19.50;62.30
45785;DHT22;31489;51.404;5.474;2022-08-21T02:22:29;19.40;62.00
45785;DHT22;31489;51.404;5.474;2022-08-21T02:24:54;19.40;62.00
45785;DHT22;31489;51.404;5.474;2022-08-21T02:27:20;19.40;62.00
45785;DHT22;31489;51.404;5.474;2022-08-21T02:29:46;19.40;62.10
45785;DHT22;31489;51.404;5.474;2022-08-21T02:32:11;19.30;62.00
45785;DHT22;31489;51.404;5.474;2022-08-21T02:34:37;19.30;62.00
45785;DHT22;31489;51.404;5.474;2022-08-21T02:37:03;19.30;62.10
45785;DHT22;31489;51.404;5.474;2022-08-21T02:39:29;19.30;62.20
45785;DHT22;31489;51.404;5.474;2022-08-21T02:41:55;19.20;62.10
45785;DHT22;31489;51.404;5.474;2022-08-21T02:44:21;19.20;62.90
45785;DHT22;31489;51.404;5.474;2022-08-21T02:46:46;19.20;62.60
45785;DHT22;31489;51.404;5.474;2022-08-21T02:49:12;19.20;62.70
45785;DHT22;31489;51.404;5.474;2022-08-21T02:51:38;19.20;62.80
45785;DHT22;31489;51.404;5.474;2022-08-21T02:54:04;19.20;62.90
45785;DHT22;31489;51.404;5.474;2022-08-21T02:56:29;19.20;63.00
45785;DHT22;31489;51.404;5.474;2022-08-21T02:58:55;19.20;63.00
45785;DHT22;31489;51.404;5.474;2022-08-21T03:01:20;19.20;63.00
45785;DHT22;31489;51.404;5.474;2022-08-21T03:03:47;19.20;63.10
45785;DHT22;31489;51.404;5.474;2022-08-21T03:06:16;19.30;63.10
45785;DHT22;31489;51.404;5.474;2022-08-21T03:08:42;19.30;63.10
45785;DHT22;31489;51.404;5.474;2022-08-21T03:11:11;19.30;63.10
45785;DHT22;31489;51.404;5.474;2022-08-21T03:13:38;19.20;63.00
45785;DHT22;31489;51.404;5.474;2022-08-21T03:16:04;19.30;63.00
45785;DHT22;31489;51.404;5.474;2022-08-21T03:18:30;19.30;63.00
45785;DHT22;31489;51.404;5.474;2022-08-21T03:20:56;19.30;63.00
45785;DHT22;31489;51.404;5.474;2022-08-21T03:23:22;19.30;63.00
45785;DHT22;31489;51.404;5.474;2022-08-21T03:25:48;19.30;63.00
45785;DHT22;31489;51.404;5.474;2022-08-21T03:28:19;19.20;63.00
45785;DHT22;31489;51.404;5.474;2022-08-21T03:30:46;19.20;63.10
45785;DHT22;31489;51.404;5.474;2022-08-21T03:33:12;19.20;63.10
45785;DHT22;31489;51.404;5.474;2022-08-21T03:35:38;19.20;63.10
45785;DHT22;31489;51.404;5.474;2022-08-21T03:38:05;19.20;63.20
45785;DHT22;31489;51.404;5.474;2022-08-21T03:40:32;19.10;63.10
45785;DHT22;31489;51.404;5.474;2022-08-21T03:42:57;19.10;63.20
45785;DHT22;31489;51.404;5.474;2022-08-21T03:45:24;19.10;63.20
45785;DHT22;31489;51.404;5.474;2022-08-21T03:47:59;19.10;63.30
45785;DHT22;31489;51.404;5.474;2022-08-21T03:50:31;19.10;63.50
45785;DHT22;31489;51.404;5.474;2022-08-21T03:52:57;19.10;63.30
45785;DHT22;31489;51.404;5.474;2022-08-21T03:55:24;19.10;63.20
45785;DHT22;31489;51.404;5.474;2022-08-21T03:57:50;19.00;63.20
45785;DHT22;31489;51.404;5.474;2022-08-21T04:00:17;19.00;63.10
45785;DHT22;31489;51.404;5.474;2022-08-21T04:02:45;19.00;63.20
45785;DHT22;31489;51.404;5.474;2022-08-21T04:05:13;19.00;63.30
45785;DHT22;31489;51.404;5.474;2022-08-21T04:07:39;18.90;63.30
45785;DHT22;31489;51.404;5.474;2022-08-21T04:10:06;18.90;63.30
45785;DHT22;31489;51.404;5.474;2022-08-21T04:12:32;18.90;63.40
45785;DHT22;31489;51.404;5.474;2022-08-21T04:14:58;18.90;63.30
45785;DHT22;31489;51.404;5.474;2022-08-21T04:17:24;18.80;64.10
45785;DHT22;31489;51.404;5.474;2022-08-21T04:19:49;18.80;63.50
45785;DHT22;31489;51.404;5.474;2022-08-21T04:22:16;18.80;63.50
45785;DHT22;31489;51.404;5.474;2022-08-21T04:24:41;18.80;63.60
45785;DHT22;31489;51.404;5.474;2022-08-21T04:27:07;18.80;63.80
45785;DHT22;31489;51.404;5.474;2022-08-21T04:29:33;18.80;63.70
45785;DHT22;31489;51.404;5.474;2022-08-21T04:31:58;18.80;63.70
45785;DHT22;31489;51.404;5.474;2022-08-21T04:34:25;18.80;63.80
45785;DHT22;31489;51.404;5.474;2022-08-21T04:36:50;18.80;63.90
45785;DHT22;31489;51.404;5.474;2022-08-21T04:39:16;18.70;63.90
45785;DHT22;31489;51.404;5.474;2022-08-21T04:41:41;18.70;64.00
45785;DHT22;31489;51.404;5.474;2022-08-21T04:44:08;18.70;64.00
45785;DHT22;31489;51.404;5.474;2022-08-21T04:46:34;18.70;64.00
45785;DHT22;31489;51.404;5.474;2022-08-21T04:49:00;18.70;64.00
45785;DHT22;31489;51.404;5.474;2022-08-21T04:51:29;18.70;64.10
45785;DHT22;31489;51.404;5.474;2022-08-21T04:54:17;18.70;64.30
45785;DHT22;31489;51.404;5.474;2022-08-21T04:56:51;18.70;64.50
45785;DHT22;31489;51.404;5.474;2022-08-21T04:59:22;18.70;64.40
45785;DHT22;31489;51.404;5.474;2022-08-21T05:01:49;18.70;64.40
45785;DHT22;31489;51.404;5.474;2022-08-21T05:04:18;18.70;64.20
45785;DHT22;31489;51.404;5.474;2022-08-21T05:06:47;18.60;64.40
45785;DHT22;31489;51.404;5.474;2022-08-21T05:09:16;18.70;64.40
45785;DHT22;31489;51.404;5.474;2022-08-21T05:11:43;18.70;64.60
45785;DHT22;31489;51.404;5.474;2022-08-21T05:14:11;18.70;64.60
45785;DHT22;31489;51.404;5.474;2022-08-21T05:16:37;18.70;64.60
45785;DHT22;31489;51.404;5.474;2022-08-21T05:19:04;18.60;64.60
45785;DHT22;31489;51.404;5.474;2022-08-21T05:21:30;18.70;64.70
45785;DHT22;31489;51.404;5.474;2022-08-21T05:23:55;18.70;64.70
45785;DHT22;31489;51.404;5.474;2022-08-21T05:26:21;18.70;64.80
45785;DHT22;31489;51.404;5.474;2022-08-21T05:28:47;18.70;64.80
45785;DHT22;31489;51.404;5.474;2022-08-21T05:31:12;18.80;64.80
45785;DHT22;31489;51.404;5.474;2022-08-21T05:33:38;18.70;64.70
45785;DHT22;31489;51.404;5.474;2022-08-21T05:36:04;18.80;64.80
45785;DHT22;31489;51.404;5.474;2022-08-21T05:38:30;18.70;64.70
45785;DHT22;31489;51.404;5.474;2022-08-21T05:40:56;18.80;64.80
45785;DHT22;31489;51.404;5.474;2022-08-21T05:43:22;18.80;64.80
45785;DHT22;31489;51.404;5.474;2022-08-21T05:45:48;18.80;64.90
45785;DHT22;31489;51.404;5.474;2022-08-21T05:48:16;18.70;65.50
45785;DHT22;31489;51.404;5.474;2022-08-21T05:50:44;18.80;65.20
45785;DHT22;31489;51.404;5.474;2022-08-21T05:53:11;18.70;65.10
45785;DHT22;31489;51.404;5.474;2022-08-21T05:55:37;18.80;65.10
45785;DHT22;31489;51.404;5.474;2022-08-21T05:58:04;18.80;65.00
45785;DHT22;31489;51.404;5.474;2022-08-21T06:00:30;18.80;65.10
45785;DHT22;31489;51.404;5.474;2022-08-21T06:02:57;18.80;65.20
45785;DHT22;31489;51.404;5.474;2022-08-21T06:05:23;18.80;65.40
45785;DHT22;31489;51.404;5.474;2022-08-21T06:07:49;18.80;65.50
45785;DHT22;31489;51.404;5.474;2022-08-21T06:10:15;18.80;65.50
45785;DHT22;31489;51.404;5.474;2022-08-21T06:12:41;18.80;65.60
45785;DHT22;31489;51.404;5.474;2022-08-21T06:15:08;18.90;65.70
45785;DHT22;31489;51.404;5.474;2022-08-21T06:17:34;18.90;65.90
45785;DHT22;31489;51.404;5.474;2022-08-21T06:20:00;18.90;65.70
45785;DHT22;31489;51.404;5.474;2022-08-21T06:22:26;19.00;65.90
45785;DHT22;31489;51.404;5.474;2022-08-21T06:24:52;19.00;65.90
45785;DHT22;31489;51.404;5.474;2022-08-21T06:27:17;19.10;65.90
45785;DHT22;31489;51.404;5.474;2022-08-21T06:29:43;19.10;65.80
45785;DHT22;31489;51.404;5.474;2022-08-21T06:32:11;19.10;65.90
45785;DHT22;31489;51.404;5.474;2022-08-21T06:34:38;19.10;66.00
45785;DHT22;31489;51.404;5.474;2022-08-21T06:37:04;19.10;66.00
45785;DHT22;31489;51.404;5.474;2022-08-21T06:39:30;19.20;66.30
45785;DHT22;31489;51.404;5.474;2022-08-21T06:41:56;19.20;66.30
45785;DHT22;31489;51.404;5.474;2022-08-21T06:44:22;19.20;66.30
45785;DHT22;31489;51.404;5.474;2022-08-21T06:46:47;19.20;66.40
45785;DHT22;31489;51.404;5.474;2022-08-21T06:49:13;19.30;66.50
45785;DHT22;31489;51.404;5.474;2022-08-21T06:51:39;19.30;66.60
45785;DHT22;31489;51.404;5.474;2022-08-21T06:54:05;19.40;66.80
45785;DHT22;31489;51.404;5.474;2022-08-21T06:56:31;19.40;66.90
45785;DHT22;31489;51.404;5.474;2022-08-21T06:58:58;19.50;67.00
45785;DHT22;31489;51.404;5.474;2022-08-21T07:01:26;19.50;67.00
45785;DHT22;31489;51.404;5.474;2022-08-21T07:03:52;19.60;67.10
45785;DHT22;31489;51.404;5.474;2022-08-21T07:06:18;19.70;67.20
45785;DHT22;31489;51.404;5.474;2022-08-21T07:08:44;19.70;67.20
45785;DHT22;31489;51.404;5.474;2022-08-21T07:11:14;19.80;67.30
45785;DHT22;31489;51.404;5.474;2022-08-21T07:13:41;19.80;67.30
45785;DHT22;31489;51.404;5.474;2022-08-21T07:16:07;19.90;67.40
45785;DHT22;31489;51.404;5.474;2022-08-21T07:18:33;19.90;67.50
45785;DHT22;31489;51.404;5.474;2022-08-21T07:21:01;20.00;67.70
45785;DHT22;31489;51.404;5.474;2022-08-21T07:23:31;20.10;67.90
45785;DHT22;31489;51.404;5.474;2022-08-21T07:25:58;20.10;67.90
45785;DHT22;31489;51.404;5.474;2022-08-21T07:28:26;20.30;67.70
45785;DHT22;31489;51.404;5.474;2022-08-21T07:30:55;20.30;67.70
45785;DHT22;31489;51.404;5.474;2022-08-21T07:33:22;20.40;67.80
45785;DHT22;31489;51.404;5.474;2022-08-21T07:35:48;20.40;67.70
45785;DHT22;31489;51.404;5.474;2022-08-21T07:38:14;20.50;67.60
45785;DHT22;31489;51.404;5.474;2022-08-21T07:40:39;20.60;67.60
45785;DHT22;31489;51.404;5.474;2022-08-21T07:43:05;20.70;67.60
45785;DHT22;31489;51.404;5.474;2022-08-21T07:45:32;20.70;67.40
45785;DHT22;31489;51.404;5.474;2022-08-21T07:47:58;20.70;67.50
45785;DHT22;31489;51.404;5.474;2022-08-21T07:50:24;20.80;67.60
45785;DHT22;31489;51.404;5.474;2022-08-21T07:52:50;20.90;67.40
45785;DHT22;31489;51.404;5.474;2022-08-21T07:55:19;20.90;67.30
45785;DHT22;31489;51.404;5.474;2022-08-21T07:57:45;21.00;67.60
45785;DHT22;31489;51.404;5.474;2022-08-21T08:00:15;21.00;67.40
45785;DHT22;31489;51.404;5.474;2022-08-21T08:02:44;21.10;67.60
45785;DHT22;31489;51.404;5.474;2022-08-21T08:05:12;21.10;67.50
45785;DHT22;31489;51.404;5.474;2022-08-21T08:07:38;21.20;67.20
45785;DHT22;31489;51.404;5.474;2022-08-21T08:10:05;21.30;67.30
45785;DHT22;31489;51.404;5.474;2022-08-21T08:12:33;21.30;67.10
45785;DHT22;31489;51.404;5.474;2022-08-21T08:15:00;21.30;67.10
45785;DHT22;31489;51.404;5.474;2022-08-21T08:17:26;21.40;67.40
45785;DHT22;31489;51.404;5.474;2022-08-21T08:19:52;21.40;67.10
45785;DHT22;31489;51.404;5.474;2022-08-21T08:22:22;21.50;66.80
45785;DHT22;31489;51.404;5.474;2022-08-21T08:24:50;21.60;66.80
45785;DHT22;31489;51.404;5.474;2022-08-21T08:27:17;21.60;66.70
45785;DHT22;31489;51.404;5.474;2022-08-21T08:29:44;21.70;66.60
45785;DHT22;31489;51.404;5.474;2022-08-21T08:32:09;21.80;66.40
45785;DHT22;31489;51.404;5.474;2022-08-21T08:34:36;21.90;66.20
45785;DHT22;31489;51.404;5.474;2022-08-21T08:37:03;21.90;66.20
45785;DHT22;31489;51.404;5.474;2022-08-21T08:39:30;21.90;66.10
45785;DHT22;31489;51.404;5.474;2022-08-21T08:42:14;22.00;66.70
45785;DHT22;31489;51.404;5.474;2022-08-21T08:44:45;22.10;66.00
45785;DHT22;31489;51.404;5.474;2022-08-21T08:47:14;22.10;65.80
45785;DHT22;31489;51.404;5.474;2022-08-21T08:55:41;22.40;65.80
45785;DHT22;31489;51.404;5.474;2022-08-21T08:58:10;22.50;65.50
45785;DHT22;31489;51.404;5.474;2022-08-21T09:00:38;22.60;65.10
45785;DHT22;31489;51.404;5.474;2022-08-21T09:03:04;22.70;65.10
45785;DHT22;31489;51.404;5.474;2022-08-21T09:05:45;22.80;64.80
45785;DHT22;31489;51.404;5.474;2022-08-21T09:08:38;22.90;64.20
45785;DHT22;31489;51.404;5.474;2022-08-21T09:11:15;23.00;63.60
45785;DHT22;31489;51.404;5.474;2022-08-21T09:13:55;23.10;63.40
45785;DHT22;31489;51.404;5.474;2022-08-21T09:19:33;23.20;63.00
45785;DHT22;31489;51.404;5.474;2022-08-21T09:27:25;23.40;62.30
45785;DHT22;31489;51.404;5.474;2022-08-21T09:29:53;23.40;62.30
45785;DHT22;31489;51.404;5.474;2022-08-21T09:32:23;23.50;61.30
45785;DHT22;31489;51.404;5.474;2022-08-21T09:37:31;23.60;61.10
45785;DHT22;31489;51.404;5.474;2022-08-21T09:39:58;23.70;61.20
45785;DHT22;31489;51.404;5.474;2022-08-21T09:42:30;23.80;61.20
45785;DHT22;31489;51.404;5.474;2022-08-21T09:45:10;23.90;60.10
45785;DHT22;31489;51.404;5.474;2022-08-21T09:47:36;24.00;59.40
45785;DHT22;31489;51.404;5.474;2022-08-21T09:50:18;24.00;59.50
45785;DHT22;31489;51.404;5.474;2022-08-21T09:52:59;24.10;59.30
45785;DHT22;31489;51.404;5.474;2022-08-21T09:55:46;24.20;58.70
45785;DHT22;31489;51.404;5.474;2022-08-21T09:58:36;24.20;58.30
45785;DHT22;31489;51.404;5.474;2022-08-21T10:01:05;24.30;57.70
45785;DHT22;31489;51.404;5.474;2022-08-21T10:03:31;24.30;58.30
45785;DHT22;31489;51.404;5.474;2022-08-21T10:06:00;24.40;58.20
45785;DHT22;31489;51.404;5.474;2022-08-21T10:08:31;24.40;58.40
45785;DHT22;31489;51.404;5.474;2022-08-21T10:11:10;24.50;57.30
45785;DHT22;31489;51.404;5.474;2022-08-21T10:14:03;24.60;56.70
45785;DHT22;31489;51.404;5.474;2022-08-21T10:19:26;24.70;56.60
45785;DHT22;31489;51.404;5.474;2022-08-21T10:27:31;24.90;55.70
45785;DHT22;31489;51.404;5.474;2022-08-21T10:30:08;25.00;55.10
45785;DHT22;31489;51.404;5.474;2022-08-21T10:33:04;25.00;54.70
45785;DHT22;31489;51.404;5.474;2022-08-21T10:35:42;25.00;55.10
45785;DHT22;31489;51.404;5.474;2022-08-21T10:46:36;25.40;54.10
45785;DHT22;31489;51.404;5.474;2022-08-21T10:51:56;25.80;54.60
45785;DHT22;31489;51.404;5.474;2022-08-21T10:54:40;26.10;54.20
45785;DHT22;31489;51.404;5.474;2022-08-21T10:57:19;26.40;54.00
45785;DHT22;31489;51.404;5.474;2022-08-21T11:00:03;26.60;53.00
45785;DHT22;31489;51.404;5.474;2022-08-21T11:02:45;26.80;52.40
45785;DHT22;31489;51.404;5.474;2022-08-21T11:08:12;27.10;51.50
45785;DHT22;31489;51.404;5.474;2022-08-21T11:43:31;28.40;46.70
45785;DHT22;31489;51.404;5.474;2022-08-21T11:49:33;28.90;47.40
45785;DHT22;31489;51.404;5.474;2022-08-21T11:55:19;29.40;45.30
45785;DHT22;31489;51.404;5.474;2022-08-21T12:01:30;29.30;44.50
45785;DHT22;31489;51.404;5.474;2022-08-21T12:03:34;29.10;44.40
45785;DHT22;31489;51.404;5.474;2022-08-21T12:06:05;29.00;43.80
45785;DHT22;31489;51.404;5.474;2022-08-21T12:08:35;28.80;44.00
45785;DHT22;31489;51.404;5.474;2022-08-21T12:11:23;28.70;45.20
45785;DHT22;31489;51.404;5.474;2022-08-21T12:24:35;28.30;44.40
45785;DHT22;31489;51.404;5.474;2022-08-21T12:29:56;28.20;45.40
45785;DHT22;31489;51.404;5.474;2022-08-21T12:35:18;28.10;45.00
45785;DHT22;31489;51.404;5.474;2022-08-21T12:37:49;28.00;45.00
45785;DHT22;31489;51.404;5.474;2022-08-21T12:40:26;28.00;45.20
45785;DHT22;31489;51.404;5.474;2022-08-21T12:42:56;28.00;45.20
45785;DHT22;31489;51.404;5.474;2022-08-21T12:48:16;28.30;43.90
45785;DHT22;31489;51.404;5.474;2022-08-21T12:50:52;28.50;44.30
45785;DHT22;31489;51.404;5.474;2022-08-21T12:53:50;28.70;42.60
45785;DHT22;31489;51.404;5.474;2022-08-21T12:56:19;28.80;42.80
45785;DHT22;31489;51.404;5.474;2022-08-21T12:58:56;28.90;43.00
45785;DHT22;31489;51.404;5.474;2022-08-21T13:01:35;29.10;42.50
45785;DHT22;31489;51.404;5.474;2022-08-21T13:04:11;29.20;42.60
45785;DHT22;31489;51.404;5.474;2022-08-21T13:06:41;29.30;42.80
45785;DHT22;31489;51.404;5.474;2022-08-21T13:09:11;29.40;42.30
45785;DHT22;31489;51.404;5.474;2022-08-21T13:11:40;29.40;43.80
45785;DHT22;31489;51.404;5.474;2022-08-21T13:14:30;29.50;41.90
45785;DHT22;31489;51.404;5.474;2022-08-21T13:16:59;29.60;42.10
45785;DHT22;31489;51.404;5.474;2022-08-21T13:19:29;29.70;41.40
45785;DHT22;31489;51.404;5.474;2022-08-21T13:21:56;29.80;41.50
45785;DHT22;31489;51.404;5.474;2022-08-21T13:24:23;29.90;41.00
45785;DHT22;31489;51.404;5.474;2022-08-21T13:26:50;30.00;42.20
45785;DHT22;31489;51.404;5.474;2022-08-21T13:29:19;30.00;41.60
45785;DHT22;31489;51.404;5.474;2022-08-21T13:31:55;30.10;42.80
45785;DHT22;31489;51.404;5.474;2022-08-21T13:34:24;30.20;41.80
45785;DHT22;31489;51.404;5.474;2022-08-21T13:37:06;30.20;41.60
45785;DHT22;31489;51.404;5.474;2022-08-21T13:39:35;30.30;41.30
45785;DHT22;31489;51.404;5.474;2022-08-21T13:42:04;30.40;40.60
45785;DHT22;31489;51.404;5.474;2022-08-21T13:44:44;30.40;40.60
45785;DHT22;31489;51.404;5.474;2022-08-21T13:47:13;30.50;41.10
45785;DHT22;31489;51.404;5.474;2022-08-21T13:49:45;30.50;40.10
45785;DHT22;31489;51.404;5.474;2022-08-21T13:52:23;30.60;40.30
45785;DHT22;31489;51.404;5.474;2022-08-21T13:55:07;30.70;39.50
45785;DHT22;31489;51.404;5.474;2022-08-21T13:57:34;30.80;39.40
45785;DHT22;31489;51.404;5.474;2022-08-21T14:00:20;30.90;39.60
45785;DHT22;31489;51.404;5.474;2022-08-21T14:02:51;31.00;39.50
45785;DHT22;31489;51.404;5.474;2022-08-21T14:05:27;31.10;39.40
45785;DHT22;31489;51.404;5.474;2022-08-21T14:08:22;31.10;38.70
45785;DHT22;31489;51.404;5.474;2022-08-21T14:10:52;31.20;39.30
45785;DHT22;31489;51.404;5.474;2022-08-21T14:16:00;31.30;38.30
45785;DHT22;31489;51.404;5.474;2022-08-21T14:18:27;31.30;38.40
45785;DHT22;31489;51.404;5.474;2022-08-21T14:21:08;31.30;37.90
45785;DHT22;31489;51.404;5.474;2022-08-21T14:23:34;31.30;38.00
45785;DHT22;31489;51.404;5.474;2022-08-21T14:26:03;31.40;37.90
45785;DHT22;31489;51.404;5.474;2022-08-21T14:28:40;31.50;37.90
45785;DHT22;31489;51.404;5.474;2022-08-21T14:31:19;31.50;37.30
45785;DHT22;31489;51.404;5.474;2022-08-21T14:33:45;31.50;38.00
45785;DHT22;31489;51.404;5.474;2022-08-21T14:36:11;31.50;37.60
45785;DHT22;31489;51.404;5.474;2022-08-21T14:38:39;31.40;37.80
45785;DHT22;31489;51.404;5.474;2022-08-21T14:41:21;31.30;37.90
45785;DHT22;31489;51.404;5.474;2022-08-21T14:43:48;31.30;37.70
45785;DHT22;31489;51.404;5.474;2022-08-21T14:46:20;31.20;37.80
45785;DHT22;31489;51.404;5.474;2022-08-21T14:48:46;31.10;37.40
45785;DHT22;31489;51.404;5.474;2022-08-21T14:51:13;31.00;37.80
45785;DHT22;31489;51.404;5.474;2022-08-21T14:53:39;30.90;37.50
45785;DHT22;31489;51.404;5.474;2022-08-21T14:56:04;30.70;37.70
45785;DHT22;31489;51.404;5.474;2022-08-21T14:58:31;30.70;38.00
45785;DHT22;31489;51.404;5.474;2022-08-21T15:00:58;30.50;37.60
45785;DHT22;31489;51.404;5.474;2022-08-21T15:03:25;30.40;38.70
45785;DHT22;31489;51.404;5.474;2022-08-21T15:05:51;30.30;38.70
45785;DHT22;31489;51.404;5.474;2022-08-21T15:08:18;30.20;38.90
45785;DHT22;31489;51.404;5.474;2022-08-21T15:10:44;30.20;38.50
45785;DHT22;31489;51.404;5.474;2022-08-21T15:13:10;30.20;38.30
45785;DHT22;31489;51.404;5.474;2022-08-21T15:15:41;30.10;38.60
45785;DHT22;31489;51.404;5.474;2022-08-21T15:18:10;30.10;39.10
45785;DHT22;31489;51.404;5.474;2022-08-21T15:20:36;30.10;39.10
45785;DHT22;31489;51.404;5.474;2022-08-21T15:23:03;30.20;39.40
45785;DHT22;31489;51.404;5.474;2022-08-21T15:25:29;30.20;39.00
45785;DHT22;31489;51.404;5.474;2022-08-21T15:28:04;30.20;38.70
45785;DHT22;31489;51.404;5.474;2022-08-21T15:30:34;30.20;38.80
45785;DHT22;31489;51.404;5.474;2022-08-21T15:33:00;30.10;38.60
45785;DHT22;31489;51.404;5.474;2022-08-21T15:35:26;30.10;38.90
45785;DHT22;31489;51.404;5.474;2022-08-21T15:37:52;30.10;39.20
45785;DHT22;31489;51.404;5.474;2022-08-21T15:40:18;30.00;39.40
45785;DHT22;31489;51.404;5.474;2022-08-21T15:42:44;29.90;39.30
45785;DHT22;31489;51.404;5.474;2022-08-21T15:45:12;29.80;39.30
45785;DHT22;31489;51.404;5.474;2022-08-21T15:47:43;29.70;39.30
45785;DHT22;31489;51.404;5.474;2022-08-21T15:50:09;29.60;39.80
45785;DHT22;31489;51.404;5.474;2022-08-21T15:52:36;29.50;40.20
45785;DHT22;31489;51.404;5.474;2022-08-21T15:55:03;29.40;40.30
45785;DHT22;31489;51.404;5.474;2022-08-21T15:57:29;29.30;40.50
45785;DHT22;31489;51.404;5.474;2022-08-21T15:59:59;29.20;40.50
45785;DHT22;31489;51.404;5.474;2022-08-21T16:02:32;29.20;40.60
45785;DHT22;31489;51.404;5.474;2022-08-21T16:04:58;29.10;40.70
45785;DHT22;31489;51.404;5.474;2022-08-21T16:07:25;29.00;40.80
45785;DHT22;31489;51.404;5.474;2022-08-21T16:09:50;29.00;41.10
45785;DHT22;31489;51.404;5.474;2022-08-21T16:12:22;28.90;41.50
45785;DHT22;31489;51.404;5.474;2022-08-21T16:14:51;28.90;41.20
45785;DHT22;31489;51.404;5.474;2022-08-21T16:17:17;28.90;41.30
45785;DHT22;31489;51.404;5.474;2022-08-21T16:19:43;28.90;41.50
45785;DHT22;31489;51.404;5.474;2022-08-21T16:22:10;28.90;41.20
45785;DHT22;31489;51.404;5.474;2022-08-21T16:24:39;28.90;41.30
45785;DHT22;31489;51.404;5.474;2022-08-21T16:27:05;28.80;41.00
45785;DHT22;31489;51.404;5.474;2022-08-21T16:29:34;28.90;41.40
45785;DHT22;31489;51.404;5.474;2022-08-21T16:32:01;28.80;41.20
45785;DHT22;31489;51.404;5.474;2022-08-21T16:34:27;28.80;41.20
45785;DHT22;31489;51.404;5.474;2022-08-21T16:36:53;28.70;41.60
45785;DHT22;31489;51.404;5.474;2022-08-21T16:39:19;28.70;41.10
45785;DHT22;31489;51.404;5.474;2022-08-21T16:41:45;28.60;41.30
45785;DHT22;31489;51.404;5.474;2022-08-21T16:44:14;28.50;41.10
45785;DHT22;31489;51.404;5.474;2022-08-21T16:46:41;28.50;41.20
45785;DHT22;31489;51.404;5.474;2022-08-21T16:49:07;28.40;41.10
45785;DHT22;31489;51.404;5.474;2022-08-21T16:51:35;28.40;41.10
45785;DHT22;31489;51.404;5.474;2022-08-21T16:54:01;28.30;42.30
45785;DHT22;31489;51.404;5.474;2022-08-21T16:56:27;28.30;42.60
45785;DHT22;31489;51.404;5.474;2022-08-21T16:58:55;28.20;42.70
45785;DHT22;31489;51.404;5.474;2022-08-21T17:01:25;28.20;43.00
45785;DHT22;31489;51.404;5.474;2022-08-21T17:03:52;28.20;42.10
45785;DHT22;31489;51.404;5.474;2022-08-21T17:06:19;28.10;42.80
45785;DHT22;31489;51.404;5.474;2022-08-21T17:08:46;28.10;42.30
45785;DHT22;31489;51.404;5.474;2022-08-21T17:11:37;28.00;43.20
45785;DHT22;31489;51.404;5.474;2022-08-21T17:14:07;28.00;43.50
45785;DHT22;31489;51.404;5.474;2022-08-21T17:16:33;28.00;43.70
45785;DHT22;31489;51.404;5.474;2022-08-21T17:18:59;28.00;44.20
45785;DHT22;31489;51.404;5.474;2022-08-21T17:21:25;27.90;43.00
45785;DHT22;31489;51.404;5.474;2022-08-21T17:23:51;27.90;42.90
45785;DHT22;31489;51.404;5.474;2022-08-21T17:26:17;27.90;43.20